sensor_id;sensor_type;location;lat;lon;timestamp;pressure;altitude;pressure_sealevel;temperature
61977;BMP280;45905;50.570;10.428;2023-07-02T00:00:13;97027.75;;;17.84
61977;BMP280;45905;50.570;10.428;2023-07-02T00:02:40;97024.63;;;17.82
61977;BMP280;45905;50.570;10.428;2023-07-02T00:05:08;97023.28;;;17.80
61977;BMP280;45905;50.570;10.428;2023-07-02T00:07:35;97033.75;;;17.78
61977;BMP280;45905;50.570;10.428;2023-07-02T00:10:04;97021.25;;;17.71
61977;BMP280;45905;50.570;10.428;2023-07-02T00:12:32;97031.72;;;17.69
61977;BMP280;45905;50.570;10.428;2023-07-02T00:15:00;97030.94;;;17.69
61977;BMP280;45905;50.570;10.428;2023-07-02T00:17:28;97034.50;;;17.68
61977;BMP280;45905;50.570;10.428;2023-07-02T00:19:56;97023.69;;;17.66
61977;BMP280;45905;50.570;10.428;2023-07-02T00:22:23;97033.38;;;17.64
61977;BMP280;45905;50.570;10.428;2023-07-02T00:24:51;97032.38;;;17.65
61977;BMP280;45905;50.570;10.428;2023-07-02T00:27:18;97028.81;;;17.66
61977;BMP280;45905;50.570;10.428;2023-07-02T00:29:46;97024.69;;;17.65
61977;BMP280;45905;50.570;10.428;2023-07-02T00:32:13;97025.59;;;17.70
61977;BMP280;45905;50.570;10.428;2023-07-02T00:34:41;97027.94;;;17.72
61977;BMP280;45905;50.570;10.428;2023-07-02T00:37:08;97023.38;;;17.74
61977;BMP280;45905;50.570;10.428;2023-07-02T00:39:36;97023.59;;;17.72
61977;BMP280;45905;50.570;10.428;2023-07-02T00:42:03;97022.59;;;17.73
61977;BMP280;45905;50.570;10.428;2023-07-02T00:44:31;97037.19;;;17.73
61977;BMP280;45905;50.570;10.428;2023-07-02T00:46:59;97030.16;;;17.68
61977;BMP280;45905;50.570;10.428;2023-07-02T00:49:27;97026.84;;;17.68
61977;BMP280;45905;50.570;10.428;2023-07-02T00:51:56;97025.03;;;17.68
61977;BMP280;45905;50.570;10.428;2023-07-02T00:54:23;97024.28;;;17.68
61977;BMP280;45905;50.570;10.428;2023-07-02T00:56:50;97016.59;;;17.68
61977;BMP280;45905;50.570;10.428;2023-07-02T00:59:18;97021.34;;;17.64
61977;BMP280;45905;50.570;10.428;2023-07-02T01:01:45;97023.13;;;17.64
61977;BMP280;45905;50.570;10.428;2023-07-02T01:04:19;97029.03;;;17.64
61977;BMP280;45905;50.570;10.428;2023-07-02T01:06:46;97031.38;;;17.66
61977;BMP280;45905;50.570;10.428;2023-07-02T01:09:14;97030.81;;;17.64
61977;BMP280;45905;50.570;10.428;2023-07-02T01:11:49;97035.94;;;17.64
61977;BMP280;45905;50.570;10.428;2023-07-02T01:14:40;97026.25;;;17.66
61977;BMP280;45905;50.570;10.428;2023-07-02T01:17:09;97030.16;;;17.68
61977;BMP280;45905;50.570;10.428;2023-07-02T01:19:49;97025.47;;;17.65
61977;BMP280;45905;50.570;10.428;2023-07-02T01:22:27;97035.25;;;17.68
61977;BMP280;45905;50.570;10.428;2023-07-02T01:24:55;97039.41;;;17.69
61977;BMP280;45905;50.570;10.428;2023-07-02T01:27:23;97041.16;;;17.69
61977;BMP280;45905;50.570;10.428;2023-07-02T01:29:53;97037.63;;;17.70
61977;BMP280;45905;50.570;10.428;2023-07-02T01:32:22;97038.41;;;17.70
61977;BMP280;45905;50.570;10.428;2023-07-02T01:34:50;97045.88;;;17.72
61977;BMP280;45905;50.570;10.428;2023-07-02T01:37:21;97042.31;;;17.73
61977;BMP280;45905;50.570;10.428;2023-07-02T01:39:48;97045.66;;;17.73
61977;BMP280;45905;50.570;10.428;2023-07-02T01:42:20;97046.44;;;17.74
61977;BMP280;45905;50.570;10.428;2023-07-02T01:44:49;97040.31;;;17.75
61977;BMP280;45905;50.570;10.428;2023-07-02T01:47:19;97042.88;;;17.75
61977;BMP280;45905;50.570;10.428;2023-07-02T01:49:47;97044.19;;;17.77
61977;BMP280;45905;50.570;10.428;2023-07-02T01:52:14;97045.75;;;17.78
61977;BMP280;45905;50.570;10.428;2023-07-02T01:54:43;97052.44;;;17.79
61977;BMP280;45905;50.570;10.428;2023-07-02T01:57:11;97049.31;;;17.77
61977;BMP280;45905;50.570;10.428;2023-07-02T01:59:38;97059.56;;;17.77
61977;BMP280;45905;50.570;10.428;2023-07-02T02:02:06;97047.78;;;17.76
61977;BMP280;45905;50.570;10.428;2023-07-02T02:04:35;97055.13;;;17.73
61977;BMP280;45905;50.570;10.428;2023-07-02T02:07:03;97050.56;;;17.75
61977;BMP280;45905;50.570;10.428;2023-07-02T02:09:31;97054.13;;;17.74
61977;BMP280;45905;50.570;10.428;2023-07-02T02:11:59;97053.13;;;17.75
61977;BMP280;45905;50.570;10.428;2023-07-02T02:14:27;97054.13;;;17.74
61977;BMP280;45905;50.570;10.428;2023-07-02T02:16:54;97056.13;;;17.72
61977;BMP280;45905;50.570;10.428;2023-07-02T02:19:23;97058.66;;;17.72
61977;BMP280;45905;50.570;10.428;2023-07-02T02:21:50;97062.22;;;17.71
61977;BMP280;45905;50.570;10.428;2023-07-02T02:24:17;97060.44;;;17.71
61977;BMP280;45905;50.570;10.428;2023-07-02T02:26:44;97077.47;;;17.66
61977;BMP280;45905;50.570;10.428;2023-07-02T02:29:12;97081.13;;;17.58
61977;BMP280;45905;50.570;10.428;2023-07-02T02:31:39;97082.13;;;17.57
61977;BMP280;45905;50.570;10.428;2023-07-02T02:34:07;97093.69;;;17.60
61977;BMP280;45905;50.570;10.428;2023-07-02T02:36:34;97087.03;;;17.59
61977;BMP280;45905;50.570;10.428;2023-07-02T02:39:02;97086.69;;;17.56
61977;BMP280;45905;50.570;10.428;2023-07-02T02:41:30;97078.63;;;17.52
61977;BMP280;45905;50.570;10.428;2023-07-02T02:43:59;97089.09;;;17.51
61977;BMP280;45905;50.570;10.428;2023-07-02T02:46:26;97084.06;;;17.44
61977;BMP280;45905;50.570;10.428;2023-07-02T02:48:54;97081.78;;;17.37
61977;BMP280;45905;50.570;10.428;2023-07-02T02:51:21;97090.41;;;17.42
61977;BMP280;45905;50.570;10.428;2023-07-02T02:53:48;97095.88;;;17.45
61977;BMP280;45905;50.570;10.428;2023-07-02T02:56:16;97094.66;;;17.48
61977;BMP280;45905;50.570;10.428;2023-07-02T02:58:44;97092.81;;;17.37
61977;BMP280;45905;50.570;10.428;2023-07-02T03:01:11;97088.63;;;17.25
61977;BMP280;45905;50.570;10.428;2023-07-02T03:03:40;97087.94;;;17.18
61977;BMP280;45905;50.570;10.428;2023-07-02T03:06:14;97085.56;;;17.17
61977;BMP280;45905;50.570;10.428;2023-07-02T03:08:44;97088.38;;;17.15
61977;BMP280;45905;50.570;10.428;2023-07-02T03:11:11;97092.91;;;17.13
61977;BMP280;45905;50.570;10.428;2023-07-02T03:13:38;97091.78;;;17.09
61977;BMP280;45905;50.570;10.428;2023-07-02T03:16:06;97094.53;;;17.08
61977;BMP280;45905;50.570;10.428;2023-07-02T03:18:34;97095.59;;;17.00
61977;BMP280;45905;50.570;10.428;2023-07-02T03:21:02;97095.03;;;16.99
61977;BMP280;45905;50.570;10.428;2023-07-02T03:23:29;97107.97;;;17.03
61977;BMP280;45905;50.570;10.428;2023-07-02T03:25:56;97104.44;;;17.04
61977;BMP280;45905;50.570;10.428;2023-07-02T03:28:24;97103.00;;;17.08
61977;BMP280;45905;50.570;10.428;2023-07-02T03:30:51;97117.34;;;17.09
61977;BMP280;45905;50.570;10.428;2023-07-02T03:33:18;97103.38;;;17.12
61977;BMP280;45905;50.570;10.428;2023-07-02T03:35:46;97112.59;;;17.13
61977;BMP280;45905;50.570;10.428;2023-07-02T03:38:13;97109.25;;;17.12
61977;BMP280;45905;50.570;10.428;2023-07-02T03:40:42;97112.81;;;17.11
61977;BMP280;45905;50.570;10.428;2023-07-02T03:43:10;97114.78;;;17.09
61977;BMP280;45905;50.570;10.428;2023-07-02T03:45:37;97112.44;;;17.08
61977;BMP280;45905;50.570;10.428;2023-07-02T03:48:05;97110.66;;;17.08
61977;BMP280;45905;50.570;10.428;2023-07-02T03:50:32;97110.13;;;17.06
61977;BMP280;45905;50.570;10.428;2023-07-02T03:53:00;97120.38;;;17.06
61977;BMP280;45905;50.570;10.428;2023-07-02T03:55:27;97114.75;;;16.98
61977;BMP280;45905;50.570;10.428;2023-07-02T03:57:54;97114.75;;;16.92
61977;BMP280;45905;50.570;10.428;2023-07-02T04:00:22;97126.22;;;16.89
61977;BMP280;45905;50.570;10.428;2023-07-02T04:02:50;97126.25;;;16.83
61977;BMP280;45905;50.570;10.428;2023-07-02T04:05:17;97128.22;;;16.81
61977;BMP280;45905;50.570;10.428;2023-07-02T04:07:45;97133.22;;;16.76
61977;BMP280;45905;50.570;10.428;2023-07-02T04:10:12;97143.66;;;16.75
61977;BMP280;45905;50.570;10.428;2023-07-02T04:12:39;97144.22;;;16.77
61977;BMP280;45905;50.570;10.428;2023-07-02T04:15:08;97131.03;;;16.80
61977;BMP280;45905;50.570;10.428;2023-07-02T04:17:35;97151.69;;;16.78
61977;BMP280;45905;50.570;10.428;2023-07-02T04:20:03;97145.41;;;16.74
61977;BMP280;45905;50.570;10.428;2023-07-02T04:22:30;97143.44;;;16.76
61977;BMP280;45905;50.570;10.428;2023-07-02T04:24:58;97134.38;;;16.80
61977;BMP280;45905;50.570;10.428;2023-07-02T04:27:45;97149.72;;;16.80
61977;BMP280;45905;50.570;10.428;2023-07-02T04:30:17;97155.81;;;16.79
61977;BMP280;45905;50.570;10.428;2023-07-02T04:32:45;97149.56;;;16.75
61977;BMP280;45905;50.570;10.428;2023-07-02T04:35:12;97153.88;;;16.75
61977;BMP280;45905;50.570;10.428;2023-07-02T04:37:39;97156.09;;;16.71
61977;BMP280;45905;50.570;10.428;2023-07-02T04:40:07;97163.75;;;16.71
61977;BMP280;45905;50.570;10.428;2023-07-02T04:42:39;97164.16;;;16.68
61977;BMP280;45905;50.570;10.428;2023-07-02T04:45:08;97164.00;;;16.63
61977;BMP280;45905;50.570;10.428;2023-07-02T04:47:35;97165.56;;;16.64
61977;BMP280;45905;50.570;10.428;2023-07-02T04:50:04;97175.25;;;16.62
61977;BMP280;45905;50.570;10.428;2023-07-02T04:52:33;97176.78;;;16.63
61977;BMP280;45905;50.570;10.428;2023-07-02T04:55:01;97182.91;;;16.62
61977;BMP280;45905;50.570;10.428;2023-07-02T04:57:29;97182.13;;;16.62
61977;BMP280;45905;50.570;10.428;2023-07-02T04:59:56;97181.91;;;16.63
61977;BMP280;45905;50.570;10.428;2023-07-02T05:02:24;97180.34;;;16.62
61977;BMP280;45905;50.570;10.428;2023-07-02T05:04:51;97180.91;;;16.64
61977;BMP280;45905;50.570;10.428;2023-07-02T05:07:18;97179.34;;;16.63
61977;BMP280;45905;50.570;10.428;2023-07-02T05:09:46;97187.59;;;16.65
61977;BMP280;45905;50.570;10.428;2023-07-02T05:12:13;97186.03;;;16.64
61977;BMP280;45905;50.570;10.428;2023-07-02T05:14:40;97185.63;;;16.67
61977;BMP280;45905;50.570;10.428;2023-07-02T05:17:07;97187.75;;;16.70
61977;BMP280;45905;50.570;10.428;2023-07-02T05:19:35;97190.31;;;16.70
61977;BMP280;45905;50.570;10.428;2023-07-02T05:22:02;97189.09;;;16.73
61977;BMP280;45905;50.570;10.428;2023-07-02T05:24:30;97194.44;;;16.71
61977;BMP280;45905;50.570;10.428;2023-07-02T05:26:57;97190.31;;;16.70
61977;BMP280;45905;50.570;10.428;2023-07-02T05:29:24;97194.22;;;16.73
61977;BMP280;45905;50.570;10.428;2023-07-02T05:31:52;97190.47;;;16.75
61977;BMP280;45905;50.570;10.428;2023-07-02T05:34:19;97195.19;;;16.78
61977;BMP280;45905;50.570;10.428;2023-07-02T05:36:46;97197.28;;;16.81
61977;BMP280;45905;50.570;10.428;2023-07-02T05:39:14;97203.38;;;16.86
61977;BMP280;45905;50.570;10.428;2023-07-02T05:41:41;97203.94;;;16.88
61977;BMP280;45905;50.570;10.428;2023-07-02T05:44:08;97192.94;;;16.88
61977;BMP280;45905;50.570;10.428;2023-07-02T05:46:36;97199.63;;;16.89
61977;BMP280;45905;50.570;10.428;2023-07-02T05:49:03;97193.06;;;16.93
61977;BMP280;45905;50.570;10.428;2023-07-02T05:51:32;97194.25;;;16.97
61977;BMP280;45905;50.570;10.428;2023-07-02T05:53:59;97191.22;;;17.06
61977;BMP280;45905;50.570;10.428;2023-07-02T05:56:27;97191.16;;;17.12
61977;BMP280;45905;50.570;10.428;2023-07-02T05:58:54;97186.75;;;17.19
61977;BMP280;45905;50.570;10.428;2023-07-02T06:01:22;97194.59;;;17.24
61977;BMP280;45905;50.570;10.428;2023-07-02T06:03:50;97185.84;;;17.31
61977;BMP280;45905;50.570;10.428;2023-07-02T06:06:18;97198.75;;;17.36
61977;BMP280;45905;50.570;10.428;2023-07-02T06:08:45;97200.91;;;17.39
61977;BMP280;45905;50.570;10.428;2023-07-02T06:11:13;97205.81;;;17.40
61977;BMP280;45905;50.570;10.428;2023-07-02T06:13:40;97191.28;;;17.35
61977;BMP280;45905;50.570;10.428;2023-07-02T06:16:07;97209.44;;;17.33
61977;BMP280;45905;50.570;10.428;2023-07-02T06:18:35;97205.38;;;17.26
61977;BMP280;45905;50.570;10.428;2023-07-02T06:21:03;97219.38;;;17.23
61977;BMP280;45905;50.570;10.428;2023-07-02T06:23:43;97214.19;;;17.30
61977;BMP280;45905;50.570;10.428;2023-07-02T06:26:11;97226.69;;;17.20
61977;BMP280;45905;50.570;10.428;2023-07-02T06:28:39;97224.91;;;17.20
61977;BMP280;45905;50.570;10.428;2023-07-02T06:31:06;97219.16;;;17.25
61977;BMP280;45905;50.570;10.428;2023-07-02T06:33:34;97227.63;;;17.25
61977;BMP280;45905;50.570;10.428;2023-07-02T06:36:05;97221.66;;;17.31
61977;BMP280;45905;50.570;10.428;2023-07-02T06:38:32;97225.56;;;17.34
61977;BMP280;45905;50.570;10.428;2023-07-02T06:40:59;97237.03;;;17.31
61977;BMP280;45905;50.570;10.428;2023-07-02T06:43:27;97242.84;;;17.38
61977;BMP280;45905;50.570;10.428;2023-07-02T06:45:54;97226.84;;;17.42
61977;BMP280;45905;50.570;10.428;2023-07-02T06:48:22;97235.69;;;17.46
61977;BMP280;45905;50.570;10.428;2023-07-02T06:50:49;97245.91;;;17.46
61977;BMP280;45905;50.570;10.428;2023-07-02T06:53:17;97242.00;;;17.44
61977;BMP280;45905;50.570;10.428;2023-07-02T06:55:44;97253.81;;;17.45
61977;BMP280;45905;50.570;10.428;2023-07-02T06:58:11;97253.59;;;17.46
61977;BMP280;45905;50.570;10.428;2023-07-02T07:00:39;97249.41;;;17.52
61977;BMP280;45905;50.570;10.428;2023-07-02T07:03:06;97256.66;;;17.55
61977;BMP280;45905;50.570;10.428;2023-07-02T07:05:33;97259.03;;;17.56
61977;BMP280;45905;50.570;10.428;2023-07-02T07:08:01;97254.03;;;17.61
61977;BMP280;45905;50.570;10.428;2023-07-02T07:10:28;97252.41;;;17.66
61977;BMP280;45905;50.570;10.428;2023-07-02T07:13:04;97244.53;;;17.68
61977;BMP280;45905;50.570;10.428;2023-07-02T07:15:34;97250.06;;;17.65
61977;BMP280;45905;50.570;10.428;2023-07-02T07:18:02;97241.00;;;17.62
61977;BMP280;45905;50.570;10.428;2023-07-02T07:20:31;97238.13;;;17.59
61977;BMP280;45905;50.570;10.428;2023-07-02T07:22:58;97237.97;;;17.54
61977;BMP280;45905;50.570;10.428;2023-07-02T07:25:26;97239.13;;;17.58
61977;BMP280;45905;50.570;10.428;2023-07-02T07:27:53;97240.88;;;17.57
61977;BMP280;45905;50.570;10.428;2023-07-02T07:30:21;97244.22;;;17.58
61977;BMP280;45905;50.570;10.428;2023-07-02T07:32:52;97246.22;;;17.56
61977;BMP280;45905;50.570;10.428;2023-07-02T07:35:21;97247.00;;;17.57
61977;BMP280;45905;50.570;10.428;2023-07-02T07:37:49;97251.34;;;17.56
61977;BMP280;45905;50.570;10.428;2023-07-02T07:40:17;97262.16;;;17.58
61977;BMP280;45905;50.570;10.428;2023-07-02T07:42:44;97270.97;;;17.62
61977;BMP280;45905;50.570;10.428;2023-07-02T07:45:11;97268.78;;;17.65
61977;BMP280;45905;50.570;10.428;2023-07-02T07:47:39;97282.78;;;17.63
61977;BMP280;45905;50.570;10.428;2023-07-02T07:50:08;97269.41;;;17.61
61977;BMP280;45905;50.570;10.428;2023-07-02T07:52:39;97275.75;;;17.58
61977;BMP280;45905;50.570;10.428;2023-07-02T07:55:07;97276.38;;;17.54
61977;BMP280;45905;50.570;10.428;2023-07-02T07:57:37;97275.78;;;17.52
61977;BMP280;45905;50.570;10.428;2023-07-02T08:00:05;97281.13;;;17.51
61977;BMP280;45905;50.570;10.428;2023-07-02T08:02:48;97287.81;;;17.52
61977;BMP280;45905;50.570;10.428;2023-07-02T08:05:16;97283.84;;;17.56
61977;BMP280;45905;50.570;10.428;2023-07-02T08:07:43;97292.09;;;17.57
61977;BMP280;45905;50.570;10.428;2023-07-02T08:10:10;97293.88;;;17.57
61977;BMP280;45905;50.570;10.428;2023-07-02T08:12:38;97295.66;;;17.57
61977;BMP280;45905;50.570;10.428;2023-07-02T08:15:06;97282.41;;;17.59
61977;BMP280;45905;50.570;10.428;2023-07-02T08:17:33;97299.34;;;17.60
61977;BMP280;45905;50.570;10.428;2023-07-02T08:20:02;97304.03;;;17.63
61977;BMP280;45905;50.570;10.428;2023-07-02T08:22:31;97297.72;;;17.66
61977;BMP280;45905;50.570;10.428;2023-07-02T08:24:58;97298.50;;;17.66
61977;BMP280;45905;50.570;10.428;2023-07-02T08:27:26;97304.75;;;17.70
61977;BMP280;45905;50.570;10.428;2023-07-02T08:29:53;97289.75;;;17.74
61977;BMP280;45905;50.570;10.428;2023-07-02T08:32:20;97293.69;;;17.76
61977;BMP280;45905;50.570;10.428;2023-07-02T08:34:48;97304.72;;;17.76
61977;BMP280;45905;50.570;10.428;2023-07-02T08:37:18;97300.72;;;17.80
61977;BMP280;45905;50.570;10.428;2023-07-02T08:39:45;97298.88;;;17.87
61977;BMP280;45905;50.570;10.428;2023-07-02T08:42:12;97297.47;;;17.91
61977;BMP280;45905;50.570;10.428;2023-07-02T08:44:41;97301.16;;;17.95
61977;BMP280;45905;50.570;10.428;2023-07-02T08:47:09;97314.13;;;18.00
61977;BMP280;45905;50.570;10.428;2023-07-02T08:49:37;97307.56;;;18.04
61977;BMP280;45905;50.570;10.428;2023-07-02T08:52:05;97311.06;;;18.09
61977;BMP280;45905;50.570;10.428;2023-07-02T08:54:33;97312.84;;;18.09
61977;BMP280;45905;50.570;10.428;2023-07-02T08:57:00;97305.72;;;18.11
61977;BMP280;45905;50.570;10.428;2023-07-02T08:59:32;97309.41;;;18.14
61977;BMP280;45905;50.570;10.428;2023-07-02T09:01:59;97315.69;;;18.18
61977;BMP280;45905;50.570;10.428;2023-07-02T09:04:27;97318.03;;;18.20
61977;BMP280;45905;50.570;10.428;2023-07-02T09:07:07;97318.75;;;18.27
61977;BMP280;45905;50.570;10.428;2023-07-02T09:09:48;97325.78;;;18.31
61977;BMP280;45905;50.570;10.428;2023-07-02T09:12:27;97330.84;;;18.37
61977;BMP280;45905;50.570;10.428;2023-07-02T09:15:00;97318.91;;;18.43
61977;BMP280;45905;50.570;10.428;2023-07-02T09:17:36;97323.97;;;18.49
61977;BMP280;45905;50.570;10.428;2023-07-02T09:20:07;97322.53;;;18.53
61977;BMP280;45905;50.570;10.428;2023-07-02T09:22:36;97328.16;;;18.61
61977;BMP280;45905;50.570;10.428;2023-07-02T09:25:03;97323.72;;;18.68
61977;BMP280;45905;50.570;10.428;2023-07-02T09:27:41;97320.56;;;18.66
61977;BMP280;45905;50.570;10.428;2023-07-02T09:30:12;97336.88;;;18.72
61977;BMP280;45905;50.570;10.428;2023-07-02T09:32:45;97331.13;;;18.76
61977;BMP280;45905;50.570;10.428;2023-07-02T09:35:13;97327.34;;;18.78
61977;BMP280;45905;50.570;10.428;2023-07-02T09:37:45;97330.69;;;18.79
61977;BMP280;45905;50.570;10.428;2023-07-02T09:40:13;97334.25;;;18.78
61977;BMP280;45905;50.570;10.428;2023-07-02T09:42:41;97353.44;;;18.75
61977;BMP280;45905;50.570;10.428;2023-07-02T09:45:11;97342.94;;;18.77
61977;BMP280;45905;50.570;10.428;2023-07-02T09:47:47;97338.72;;;18.82
61977;BMP280;45905;50.570;10.428;2023-07-02T09:50:17;97343.09;;;18.93
61977;BMP280;45905;50.570;10.428;2023-07-02T09:52:47;97350.84;;;19.04
61977;BMP280;45905;50.570;10.428;2023-07-02T09:55:15;97350.97;;;19.09
61977;BMP280;45905;50.570;10.428;2023-07-02T09:57:44;97349.53;;;19.13
61977;BMP280;45905;50.570;10.428;2023-07-02T10:00:14;97348.63;;;19.19
61977;BMP280;45905;50.570;10.428;2023-07-02T10:02:41;97351.78;;;19.21
61977;BMP280;45905;50.570;10.428;2023-07-02T10:05:32;97342.06;;;19.23
61977;BMP280;45905;50.570;10.428;2023-07-02T10:08:15;97347.41;;;19.21
61977;BMP280;45905;50.570;10.428;2023-07-02T10:10:45;97360.47;;;19.20
61977;BMP280;45905;50.570;10.428;2023-07-02T10:13:12;97340.00;;;19.02
61977;BMP280;45905;50.570;10.428;2023-07-02T10:15:41;97355.63;;;19.01
61977;BMP280;45905;50.570;10.428;2023-07-02T10:18:08;97339.78;;;19.04
61977;BMP280;45905;50.570;10.428;2023-07-02T10:20:39;97346.75;;;19.14
61977;BMP280;45905;50.570;10.428;2023-07-02T10:23:08;97350.44;;;19.29
61977;BMP280;45905;50.570;10.428;2023-07-02T10:25:38;97337.94;;;19.44
61977;BMP280;45905;50.570;10.428;2023-07-02T10:28:18;97349.63;;;19.58
61977;BMP280;45905;50.570;10.428;2023-07-02T10:30:53;97337.78;;;19.57
61977;BMP280;45905;50.570;10.428;2023-07-02T10:33:22;97335.06;;;19.52
61977;BMP280;45905;50.570;10.428;2023-07-02T10:35:51;97343.53;;;19.52
61977;BMP280;45905;50.570;10.428;2023-07-02T10:38:24;97351.19;;;19.59
61977;BMP280;45905;50.570;10.428;2023-07-02T10:41:00;97341.69;;;19.59
61977;BMP280;45905;50.570;10.428;2023-07-02T10:43:31;97344.56;;;19.51
61977;BMP280;45905;50.570;10.428;2023-07-02T10:46:00;97347.78;;;19.47
61977;BMP280;45905;50.570;10.428;2023-07-02T10:48:30;97358.06;;;19.47
61977;BMP280;45905;50.570;10.428;2023-07-02T10:50:58;97361.19;;;19.49
61977;BMP280;45905;50.570;10.428;2023-07-02T10:53:25;97354.94;;;19.45
61977;BMP280;45905;50.570;10.428;2023-07-02T10:55:55;97356.38;;;19.41
61977;BMP280;45905;50.570;10.428;2023-07-02T10:58:24;97362.97;;;19.37
61977;BMP280;45905;50.570;10.428;2023-07-02T11:00:52;97351.69;;;19.38
61977;BMP280;45905;50.570;10.428;2023-07-02T11:03:26;97330.81;;;19.46
61977;BMP280;45905;50.570;10.428;2023-07-02T11:05:54;97337.66;;;19.63
61977;BMP280;45905;50.570;10.428;2023-07-02T11:08:22;97342.47;;;19.82
61977;BMP280;45905;50.570;10.428;2023-07-02T11:11:06;97328.25;;;19.91
61977;BMP280;45905;50.570;10.428;2023-07-02T11:13:33;97328.25;;;20.02
61977;BMP280;45905;50.570;10.428;2023-07-02T11:16:01;97333.25;;;20.08
61977;BMP280;45905;50.570;10.428;2023-07-02T11:18:31;97329.41;;;20.22
61977;BMP280;45905;50.570;10.428;2023-07-02T11:21:10;97323.38;;;20.28
61977;BMP280;45905;50.570;10.428;2023-07-02T11:23:37;97328.03;;;20.31
61977;BMP280;45905;50.570;10.428;2023-07-02T11:26:05;97329.53;;;20.38
61977;BMP280;45905;50.570;10.428;2023-07-02T11:28:33;97329.16;;;20.46
61977;BMP280;45905;50.570;10.428;2023-07-02T11:31:04;97330.59;;;20.53
61977;BMP280;45905;50.570;10.428;2023-07-02T11:33:40;97317.75;;;20.69
61977;BMP280;45905;50.570;10.428;2023-07-02T11:36:22;97323.25;;;20.73
61977;BMP280;45905;50.570;10.428;2023-07-02T11:38:51;97326.13;;;20.76
61977;BMP280;45905;50.570;10.428;2023-07-02T11:41:19;97331.03;;;20.78
61977;BMP280;45905;50.570;10.428;2023-07-02T11:43:48;97329.03;;;20.80
61977;BMP280;45905;50.570;10.428;2023-07-02T11:46:15;97320.13;;;20.71
61977;BMP280;45905;50.570;10.428;2023-07-02T11:48:43;97324.63;;;20.64
61977;BMP280;45905;50.570;10.428;2023-07-02T11:51:10;97324.47;;;20.70
61977;BMP280;45905;50.570;10.428;2023-07-02T11:53:37;97326.22;;;20.81
61977;BMP280;45905;50.570;10.428;2023-07-02T11:56:06;97320.06;;;20.82
61977;BMP280;45905;50.570;10.428;2023-07-02T11:58:33;97323.50;;;20.87
61977;BMP280;45905;50.570;10.428;2023-07-02T12:01:01;97324.06;;;20.89
61977;BMP280;45905;50.570;10.428;2023-07-02T12:03:28;97321.47;;;20.89
61977;BMP280;45905;50.570;10.428;2023-07-02T12:05:57;97318.69;;;20.91
61977;BMP280;45905;50.570;10.428;2023-07-02T12:08:24;97325.38;;;20.92
61977;BMP280;45905;50.570;10.428;2023-07-02T12:10:52;97323.13;;;20.95
61977;BMP280;45905;50.570;10.428;2023-07-02T12:13:19;97316.34;;;21.05
61977;BMP280;45905;50.570;10.428;2023-07-02T12:15:48;97318.66;;;21.18
61977;BMP280;45905;50.570;10.428;2023-07-02T12:18:17;97321.47;;;21.33
61977;BMP280;45905;50.570;10.428;2023-07-02T12:20:45;97299.81;;;21.50
61977;BMP280;45905;50.570;10.428;2023-07-02T12:23:12;97307.59;;;21.71
61977;BMP280;45905;50.570;10.428;2023-07-02T12:25:40;97306.78;;;21.86
61977;BMP280;45905;50.570;10.428;2023-07-02T12:28:07;97295.44;;;22.03
61977;BMP280;45905;50.570;10.428;2023-07-02T12:30:38;97288.97;;;22.22
61977;BMP280;45905;50.570;10.428;2023-07-02T12:33:05;97291.81;;;22.46
61977;BMP280;45905;50.570;10.428;2023-07-02T12:35:32;97282.78;;;22.70
61977;BMP280;45905;50.570;10.428;2023-07-02T12:38:00;97279.31;;;22.85
61977;BMP280;45905;50.570;10.428;2023-07-02T12:40:29;97272.28;;;23.07
61977;BMP280;45905;50.570;10.428;2023-07-02T12:42:57;97265.41;;;23.22
61977;BMP280;45905;50.570;10.428;2023-07-02T12:45:24;97280.19;;;23.26
61977;BMP280;45905;50.570;10.428;2023-07-02T12:47:52;97284.28;;;23.22
61977;BMP280;45905;50.570;10.428;2023-07-02T12:50:19;97298.41;;;23.10
61977;BMP280;45905;50.570;10.428;2023-07-02T12:52:46;97301.16;;;23.04
61977;BMP280;45905;50.570;10.428;2023-07-02T12:55:14;97306.84;;;23.01
61977;BMP280;45905;50.570;10.428;2023-07-02T12:57:41;97301.16;;;23.04
61977;BMP280;45905;50.570;10.428;2023-07-02T13:00:09;97310.00;;;23.08
61977;BMP280;45905;50.570;10.428;2023-07-02T13:02:37;97303.72;;;22.99
61977;BMP280;45905;50.570;10.428;2023-07-02T13:05:27;97297.13;;;22.87
61977;BMP280;45905;50.570;10.428;2023-07-02T13:07:54;97298.91;;;22.81
61977;BMP280;45905;50.570;10.428;2023-07-02T13:10:22;97301.38;;;22.72
61977;BMP280;45905;50.570;10.428;2023-07-02T13:12:49;97302.06;;;22.62
61977;BMP280;45905;50.570;10.428;2023-07-02T13:15:16;97292.28;;;22.64
61977;BMP280;45905;50.570;10.428;2023-07-02T13:17:44;97289.19;;;22.67
61977;BMP280;45905;50.570;10.428;2023-07-02T13:20:11;97293.34;;;22.68
61977;BMP280;45905;50.570;10.428;2023-07-02T13:22:39;97294.75;;;22.80
61977;BMP280;45905;50.570;10.428;2023-07-02T13:25:07;97302.63;;;22.95
61977;BMP280;45905;50.570;10.428;2023-07-02T13:27:34;97294.19;;;23.04
61977;BMP280;45905;50.570;10.428;2023-07-02T13:30:02;97292.94;;;23.07
61977;BMP280;45905;50.570;10.428;2023-07-02T13:32:30;97293.94;;;23.01
61977;BMP280;45905;50.570;10.428;2023-07-02T13:34:58;97297.44;;;22.90
61977;BMP280;45905;50.570;10.428;2023-07-02T13:37:25;97303.16;;;22.92
61977;BMP280;45905;50.570;10.428;2023-07-02T13:39:53;97307.09;;;22.74
61977;BMP280;45905;50.570;10.428;2023-07-02T13:42:20;97309.56;;;22.64
61977;BMP280;45905;50.570;10.428;2023-07-02T13:44:47;97314.91;;;22.57
61977;BMP280;45905;50.570;10.428;2023-07-02T13:47:15;97305.00;;;22.50
61977;BMP280;45905;50.570;10.428;2023-07-02T13:49:42;97305.25;;;22.48
61977;BMP280;45905;50.570;10.428;2023-07-02T13:52:10;97311.19;;;22.49
61977;BMP280;45905;50.570;10.428;2023-07-02T13:54:38;97310.41;;;22.48
61977;BMP280;45905;50.570;10.428;2023-07-02T13:57:05;97300.19;;;22.58
61977;BMP280;45905;50.570;10.428;2023-07-02T13:59:33;97303.78;;;22.78
61977;BMP280;45905;50.570;10.428;2023-07-02T14:02:00;97296.78;;;23.04
61977;BMP280;45905;50.570;10.428;2023-07-02T14:04:28;97281.19;;;23.25